sensor_id;sensor_type;location;lat;lon;timestamp;P1;durP1;ratioP1;P2;durP2;ratioP2
15693;SDS011;7947;48.834;9.132;2023-08-08T00:00:10;1.23;;;0.82;;
15693;SDS011;7947;48.834;9.132;2023-08-08T00:03:14;2.42;;;0.70;;
15693;SDS011;7947;48.834;9.132;2023-08-08T00:06:19;1.60;;;0.82;;
15693;SDS011;7947;48.834;9.132;2023-08-08T00:09:22;2.03;;;0.90;;
15693;SDS011;7947;48.834;9.132;2023-08-08T00:12:24;1.25;;;0.85;;
15693;SDS011;7947;48.834;9.132;2023-08-08T00:15:27;0.85;;;0.68;;
15693;SDS011;7947;48.834;9.132;2023-08-08T00:18:30;1.45;;;0.80;;
15693;SDS011;7947;48.834;9.132;2023-08-08T00:21:35;1.33;;;0.80;;
15693;SDS011;7947;48.834;9.132;2023-08-08T00:24:37;0.90;;;0.82;;
15693;SDS011;7947;48.834;9.132;2023-08-08T00:27:40;1.75;;;0.90;;
15693;SDS011;7947;48.834;9.132;2023-08-08T00:30:45;1.48;;;0.88;;
15693;SDS011;7947;48.834;9.132;2023-08-08T00:33:48;1.55;;;0.90;;
15693;SDS011;7947;48.834;9.132;2023-08-08T00:36:52;1.13;;;0.90;;
15693;SDS011;7947;48.834;9.132;2023-08-08T00:39:55;2.30;;;0.80;;
15693;SDS011;7947;48.834;9.132;2023-08-08T00:42:58;1.88;;;0.80;;
15693;SDS011;7947;48.834;9.132;2023-08-08T00:46:01;1.85;;;0.85;;
15693;SDS011;7947;48.834;9.132;2023-08-08T00:49:04;0.85;;;0.57;;
15693;SDS011;7947;48.834;9.132;2023-08-08T00:52:08;2.42;;;0.88;;
15693;SDS011;7947;48.834;9.132;2023-08-08T00:55:11;1.42;;;1.00;;
15693;SDS011;7947;48.834;9.132;2023-08-08T00:58:15;1.85;;;1.00;;
15693;SDS011;7947;48.834;9.132;2023-08-08T01:01:19;2.53;;;1.10;;
15693;SDS011;7947;48.834;9.132;2023-08-08T01:04:22;1.33;;;0.80;;
15693;SDS011;7947;48.834;9.132;2023-08-08T01:07:32;1.30;;;0.77;;
15693;SDS011;7947;48.834;9.132;2023-08-08T01:10:39;1.17;;;0.80;;
15693;SDS011;7947;48.834;9.132;2023-08-08T01:13:44;2.15;;;0.80;;
15693;SDS011;7947;48.834;9.132;2023-08-08T01:16:48;1.40;;;0.75;;
15693;SDS011;7947;48.834;9.132;2023-08-08T01:19:51;1.45;;;0.75;;
15693;SDS011;7947;48.834;9.132;2023-08-08T01:22:58;1.50;;;0.82;;
15693;SDS011;7947;48.834;9.132;2023-08-08T01:26:12;1.15;;;0.65;;
15693;SDS011;7947;48.834;9.132;2023-08-08T01:29:15;1.05;;;0.90;;
15693;SDS011;7947;48.834;9.132;2023-08-08T01:32:18;1.75;;;0.65;;
15693;SDS011;7947;48.834;9.132;2023-08-08T01:35:21;0.90;;;0.73;;
15693;SDS011;7947;48.834;9.132;2023-08-08T01:38:28;1.10;;;0.82;;
15693;SDS011;7947;48.834;9.132;2023-08-08T01:41:37;2.08;;;1.02;;
15693;SDS011;7947;48.834;9.132;2023-08-08T01:44:41;1.70;;;0.60;;
15693;SDS011;7947;48.834;9.132;2023-08-08T01:47:49;0.70;;;0.70;;
15693;SDS011;7947;48.834;9.132;2023-08-08T01:50:52;2.92;;;1.00;;
15693;SDS011;7947;48.834;9.132;2023-08-08T01:53:55;0.80;;;0.73;;
15693;SDS011;7947;48.834;9.132;2023-08-08T01:56:59;0.93;;;0.82;;
15693;SDS011;7947;48.834;9.132;2023-08-08T02:00:03;0.90;;;0.70;;
15693;SDS011;7947;48.834;9.132;2023-08-08T02:03:07;0.63;;;0.50;;
15693;SDS011;7947;48.834;9.132;2023-08-08T02:06:10;0.90;;;0.80;;
15693;SDS011;7947;48.834;9.132;2023-08-08T02:09:13;1.30;;;1.00;;
15693;SDS011;7947;48.834;9.132;2023-08-08T02:12:18;2.35;;;0.65;;
15693;SDS011;7947;48.834;9.132;2023-08-08T02:15:21;0.80;;;0.63;;
15693;SDS011;7947;48.834;9.132;2023-08-08T02:18:24;0.98;;;0.68;;
15693;SDS011;7947;48.834;9.132;2023-08-08T02:21:27;0.88;;;0.80;;
15693;SDS011;7947;48.834;9.132;2023-08-08T02:24:30;1.58;;;0.93;;
15693;SDS011;7947;48.834;9.132;2023-08-08T02:27:34;2.17;;;0.80;;
15693;SDS011;7947;48.834;9.132;2023-08-08T02:30:37;1.23;;;0.77;;
15693;SDS011;7947;48.834;9.132;2023-08-08T02:33:39;1.30;;;0.80;;
15693;SDS011;7947;48.834;9.132;2023-08-08T02:36:42;0.75;;;0.75;;
15693;SDS011;7947;48.834;9.132;2023-08-08T02:39:45;1.33;;;0.85;;
15693;SDS011;7947;48.834;9.132;2023-08-08T02:42:49;1.05;;;0.90;;
15693;SDS011;7947;48.834;9.132;2023-08-08T02:45:52;1.75;;;1.00;;
15693;SDS011;7947;48.834;9.132;2023-08-08T02:48:55;1.38;;;0.90;;
15693;SDS011;7947;48.834;9.132;2023-08-08T02:51:58;0.77;;;0.77;;
15693;SDS011;7947;48.834;9.132;2023-08-08T02:55:01;0.95;;;0.73;;
15693;SDS011;7947;48.834;9.132;2023-08-08T02:58:06;0.68;;;0.60;;
15693;SDS011;7947;48.834;9.132;2023-08-08T03:01:09;1.05;;;0.90;;
15693;SDS011;7947;48.834;9.132;2023-08-08T03:04:14;0.80;;;0.80;;
15693;SDS011;7947;48.834;9.132;2023-08-08T03:07:17;1.17;;;0.80;;
15693;SDS011;7947;48.834;9.132;2023-08-08T03:10:20;0.88;;;0.80;;
15693;SDS011;7947;48.834;9.132;2023-08-08T03:13:24;0.90;;;0.77;;
15693;SDS011;7947;48.834;9.132;2023-08-08T03:16:27;1.17;;;0.80;;
15693;SDS011;7947;48.834;9.132;2023-08-08T03:19:30;1.45;;;0.82;;
15693;SDS011;7947;48.834;9.132;2023-08-08T03:22:33;1.48;;;0.90;;
15693;SDS011;7947;48.834;9.132;2023-08-08T03:25:36;0.93;;;0.80;;
15693;SDS011;7947;48.834;9.132;2023-08-08T03:28:41;0.90;;;0.73;;
15693;SDS011;7947;48.834;9.132;2023-08-08T03:31:44;0.95;;;0.80;;
15693;SDS011;7947;48.834;9.132;2023-08-08T03:34:46;1.20;;;0.90;;
15693;SDS011;7947;48.834;9.132;2023-08-08T03:37:49;1.25;;;0.70;;
15693;SDS011;7947;48.834;9.132;2023-08-08T03:40:52;1.80;;;0.85;;
15693;SDS011;7947;48.834;9.132;2023-08-08T03:43:56;1.02;;;0.75;;
15693;SDS011;7947;48.834;9.132;2023-08-08T03:46:59;1.02;;;0.73;;
15693;SDS011;7947;48.834;9.132;2023-08-08T03:50:19;1.65;;;0.80;;
15693;SDS011;7947;48.834;9.132;2023-08-08T03:53:22;1.80;;;1.02;;
15693;SDS011;7947;48.834;9.132;2023-08-08T03:56:25;2.08;;;0.80;;
15693;SDS011;7947;48.834;9.132;2023-08-08T03:59:30;0.85;;;0.70;;
15693;SDS011;7947;48.834;9.132;2023-08-08T04:02:33;2.60;;;1.00;;
15693;SDS011;7947;48.834;9.132;2023-08-08T04:05:36;0.63;;;0.60;;
15693;SDS011;7947;48.834;9.132;2023-08-08T04:08:38;0.90;;;0.57;;
15693;SDS011;7947;48.834;9.132;2023-08-08T04:11:41;1.95;;;0.82;;
15693;SDS011;7947;48.834;9.132;2023-08-08T04:14:45;1.00;;;0.80;;
15693;SDS011;7947;48.834;9.132;2023-08-08T04:17:48;1.30;;;0.85;;
15693;SDS011;7947;48.834;9.132;2023-08-08T04:20:52;1.02;;;0.73;;
15693;SDS011;7947;48.834;9.132;2023-08-08T04:23:55;2.58;;;0.98;;
15693;SDS011;7947;48.834;9.132;2023-08-08T04:26:58;1.55;;;0.90;;
15693;SDS011;7947;48.834;9.132;2023-08-08T04:30:02;0.70;;;0.70;;
15693;SDS011;7947;48.834;9.132;2023-08-08T04:33:06;1.02;;;0.85;;
15693;SDS011;7947;48.834;9.132;2023-08-08T04:36:09;1.25;;;0.80;;
15693;SDS011;7947;48.834;9.132;2023-08-08T04:39:12;1.42;;;1.00;;
15693;SDS011;7947;48.834;9.132;2023-08-08T04:42:14;1.17;;;0.75;;
15693;SDS011;7947;48.834;9.132;2023-08-08T04:45:19;1.33;;;0.90;;
15693;SDS011;7947;48.834;9.132;2023-08-08T04:48:22;1.15;;;0.80;;
15693;SDS011;7947;48.834;9.132;2023-08-08T04:51:25;0.75;;;0.70;;
15693;SDS011;7947;48.834;9.132;2023-08-08T04:54:28;2.58;;;0.95;;
15693;SDS011;7947;48.834;9.132;2023-08-08T04:57:31;2.78;;;0.70;;
15693;SDS011;7947;48.834;9.132;2023-08-08T05:00:36;1.48;;;0.80;;
15693;SDS011;7947;48.834;9.132;2023-08-08T05:03:39;1.05;;;0.77;;
15693;SDS011;7947;48.834;9.132;2023-08-08T05:06:42;1.05;;;0.80;;
15693;SDS011;7947;48.834;9.132;2023-08-08T05:09:45;1.40;;;1.02;;
15693;SDS011;7947;48.834;9.132;2023-08-08T05:12:48;0.95;;;0.70;;
15693;SDS011;7947;48.834;9.132;2023-08-08T05:15:52;0.77;;;0.50;;
15693;SDS011;7947;48.834;9.132;2023-08-08T05:18:55;1.50;;;0.98;;
15693;SDS011;7947;48.834;9.132;2023-08-08T05:21:59;1.00;;;0.70;;
15693;SDS011;7947;48.834;9.132;2023-08-08T05:25:03;2.80;;;1.00;;
15693;SDS011;7947;48.834;9.132;2023-08-08T05:28:15;2.15;;;0.70;;
15693;SDS011;7947;48.834;9.132;2023-08-08T05:31:19;0.70;;;0.70;;
15693;SDS011;7947;48.834;9.132;2023-08-08T05:34:23;1.10;;;0.90;;
15693;SDS011;7947;48.834;9.132;2023-08-08T05:37:26;3.95;;;1.25;;
15693;SDS011;7947;48.834;9.132;2023-08-08T05:40:29;1.90;;;1.17;;
15693;SDS011;7947;48.834;9.132;2023-08-08T05:43:32;1.10;;;0.73;;
15693;SDS011;7947;48.834;9.132;2023-08-08T05:46:37;0.88;;;0.80;;
15693;SDS011;7947;48.834;9.132;2023-08-08T05:49:40;2.72;;;1.00;;
15693;SDS011;7947;48.834;9.132;2023-08-08T05:52:44;1.20;;;1.00;;
15693;SDS011;7947;48.834;9.132;2023-08-08T05:55:46;1.35;;;0.73;;
15693;SDS011;7947;48.834;9.132;2023-08-08T05:58:50;1.55;;;0.90;;
15693;SDS011;7947;48.834;9.132;2023-08-08T06:01:55;1.27;;;0.90;;
15693;SDS011;7947;48.834;9.132;2023-08-08T06:04:58;1.38;;;1.02;;
15693;SDS011;7947;48.834;9.132;2023-08-08T06:08:00;2.00;;;0.93;;
15693;SDS011;7947;48.834;9.132;2023-08-08T06:11:05;1.33;;;1.05;;
15693;SDS011;7947;48.834;9.132;2023-08-08T06:14:08;0.75;;;0.70;;
15693;SDS011;7947;48.834;9.132;2023-08-08T06:17:17;0.85;;;0.70;;
15693;SDS011;7947;48.834;9.132;2023-08-08T06:20:20;1.00;;;0.70;;
15693;SDS011;7947;48.834;9.132;2023-08-08T06:23:22;0.73;;;0.70;;
15693;SDS011;7947;48.834;9.132;2023-08-08T06:26:25;1.00;;;0.70;;
15693;SDS011;7947;48.834;9.132;2023-08-08T06:29:28;0.80;;;0.80;;
15693;SDS011;7947;48.834;9.132;2023-08-08T06:32:33;1.38;;;0.85;;
15693;SDS011;7947;48.834;9.132;2023-08-08T06:35:36;1.35;;;0.88;;
15693;SDS011;7947;48.834;9.132;2023-08-08T06:38:39;1.42;;;0.70;;
15693;SDS011;7947;48.834;9.132;2023-08-08T06:41:42;0.82;;;0.73;;
15693;SDS011;7947;48.834;9.132;2023-08-08T06:44:45;2.08;;;1.17;;
15693;SDS011;7947;48.834;9.132;2023-08-08T06:47:49;1.63;;;0.98;;
15693;SDS011;7947;48.834;9.132;2023-08-08T06:50:52;0.68;;;0.68;;
15693;SDS011;7947;48.834;9.132;2023-08-08T06:53:54;2.45;;;0.70;;
15693;SDS011;7947;48.834;9.132;2023-08-08T06:56:57;2.55;;;0.90;;
15693;SDS011;7947;48.834;9.132;2023-08-08T07:00:01;1.13;;;0.80;;
15693;SDS011;7947;48.834;9.132;2023-08-08T07:03:08;1.20;;;0.73;;
15693;SDS011;7947;48.834;9.132;2023-08-08T07:06:11;1.75;;;0.90;;
15693;SDS011;7947;48.834;9.132;2023-08-08T07:09:14;1.20;;;0.77;;
15693;SDS011;7947;48.834;9.132;2023-08-08T07:12:16;1.23;;;0.80;;
15693;SDS011;7947;48.834;9.132;2023-08-08T07:15:19;1.95;;;0.93;;
15693;SDS011;7947;48.834;9.132;2023-08-08T07:18:24;2.78;;;1.13;;
15693;SDS011;7947;48.834;9.132;2023-08-08T07:21:27;1.20;;;0.93;;
15693;SDS011;7947;48.834;9.132;2023-08-08T07:24:30;1.35;;;0.95;;
15693;SDS011;7947;48.834;9.132;2023-08-08T07:27:33;2.53;;;0.80;;
15693;SDS011;7947;48.834;9.132;2023-08-08T07:30:36;0.80;;;0.68;;
15693;SDS011;7947;48.834;9.132;2023-08-08T07:33:40;1.20;;;0.88;;
15693;SDS011;7947;48.834;9.132;2023-08-08T07:36:43;1.42;;;0.82;;
15693;SDS011;7947;48.834;9.132;2023-08-08T07:39:46;1.23;;;0.73;;
15693;SDS011;7947;48.834;9.132;2023-08-08T07:42:52;0.70;;;0.63;;
15693;SDS011;7947;48.834;9.132;2023-08-08T07:45:55;1.42;;;0.75;;
15693;SDS011;7947;48.834;9.132;2023-08-08T07:48:59;2.60;;;0.93;;
15693;SDS011;7947;48.834;9.132;2023-08-08T07:52:05;0.93;;;0.70;;
15693;SDS011;7947;48.834;9.132;2023-08-08T07:55:08;1.38;;;0.82;;
15693;SDS011;7947;48.834;9.132;2023-08-08T07:58:11;1.45;;;0.95;;
15693;SDS011;7947;48.834;9.132;2023-08-08T08:01:14;1.50;;;1.00;;
15693;SDS011;7947;48.834;9.132;2023-08-08T08:04:19;0.80;;;0.70;;
15693;SDS011;7947;48.834;9.132;2023-08-08T08:07:22;1.65;;;1.00;;
15693;SDS011;7947;48.834;9.132;2023-08-08T08:10:25;1.10;;;0.80;;
15693;SDS011;7947;48.834;9.132;2023-08-08T08:13:27;0.98;;;0.75;;
15693;SDS011;7947;48.834;9.132;2023-08-08T08:16:30;1.45;;;0.75;;
15693;SDS011;7947;48.834;9.132;2023-08-08T08:19:35;1.38;;;0.85;;
15693;SDS011;7947;48.834;9.132;2023-08-08T08:22:38;1.33;;;0.82;;
15693;SDS011;7947;48.834;9.132;2023-08-08T08:25:40;0.85;;;0.80;;
15693;SDS011;7947;48.834;9.132;2023-08-08T08:28:43;1.73;;;0.93;;
15693;SDS011;7947;48.834;9.132;2023-08-08T08:31:46;1.08;;;0.80;;
15693;SDS011;7947;48.834;9.132;2023-08-08T08:34:50;2.25;;;0.90;;
15693;SDS011;7947;48.834;9.132;2023-08-08T08:37:53;1.45;;;0.90;;
15693;SDS011;7947;48.834;9.132;2023-08-08T08:40:56;1.00;;;0.70;;
15693;SDS011;7947;48.834;9.132;2023-08-08T08:43:59;0.63;;;0.60;;
15693;SDS011;7947;48.834;9.132;2023-08-08T08:47:02;1.52;;;0.80;;
15693;SDS011;7947;48.834;9.132;2023-08-08T08:50:11;0.65;;;0.65;;
15693;SDS011;7947;48.834;9.132;2023-08-08T08:53:16;1.98;;;0.80;;
15693;SDS011;7947;48.834;9.132;2023-08-08T08:56:19;0.85;;;0.55;;
15693;SDS011;7947;48.834;9.132;2023-08-08T08:59:24;1.30;;;0.80;;
15693;SDS011;7947;48.834;9.132;2023-08-08T09:02:27;1.23;;;0.75;;
15693;SDS011;7947;48.834;9.132;2023-08-08T09:05:31;2.38;;;0.98;;
15693;SDS011;7947;48.834;9.132;2023-08-08T09:08:36;1.27;;;0.70;;
15693;SDS011;7947;48.834;9.132;2023-08-08T09:11:39;2.42;;;0.95;;
15693;SDS011;7947;48.834;9.132;2023-08-08T09:14:43;1.10;;;0.57;;
15693;SDS011;7947;48.834;9.132;2023-08-08T09:17:46;2.05;;;0.63;;
15693;SDS011;7947;48.834;9.132;2023-08-08T09:20:51;1.30;;;0.80;;
15693;SDS011;7947;48.834;9.132;2023-08-08T09:23:54;3.25;;;0.98;;
15693;SDS011;7947;48.834;9.132;2023-08-08T09:26:57;1.55;;;1.20;;
15693;SDS011;7947;48.834;9.132;2023-08-08T09:29:59;1.40;;;0.80;;
15693;SDS011;7947;48.834;9.132;2023-08-08T09:33:03;2.25;;;0.50;;
15693;SDS011;7947;48.834;9.132;2023-08-08T09:36:07;1.95;;;0.85;;
15693;SDS011;7947;48.834;9.132;2023-08-08T09:39:16;2.50;;;0.70;;
15693;SDS011;7947;48.834;9.132;2023-08-08T09:42:19;0.52;;;0.52;;
15693;SDS011;7947;48.834;9.132;2023-08-08T09:45:22;1.23;;;0.70;;
15693;SDS011;7947;48.834;9.132;2023-08-08T09:48:29;3.42;;;0.70;;
15693;SDS011;7947;48.834;9.132;2023-08-08T09:51:34;1.70;;;0.50;;
15693;SDS011;7947;48.834;9.132;2023-08-08T09:54:36;0.95;;;0.85;;
15693;SDS011;7947;48.834;9.132;2023-08-08T09:57:41;1.20;;;0.65;;
15693;SDS011;7947;48.834;9.132;2023-08-08T10:00:45;1.67;;;0.50;;
15693;SDS011;7947;48.834;9.132;2023-08-08T10:03:48;1.45;;;1.00;;
15693;SDS011;7947;48.834;9.132;2023-08-08T10:06:55;0.75;;;0.50;;
15693;SDS011;7947;48.834;9.132;2023-08-08T10:09:58;1.25;;;0.80;;
15693;SDS011;7947;48.834;9.132;2023-08-08T10:13:01;1.48;;;0.93;;
15693;SDS011;7947;48.834;9.132;2023-08-08T10:16:04;1.75;;;0.63;;
15693;SDS011;7947;48.834;9.132;2023-08-08T10:19:10;3.72;;;0.80;;
15693;SDS011;7947;48.834;9.132;2023-08-08T10:22:14;2.95;;;0.70;;
15693;SDS011;7947;48.834;9.132;2023-08-08T10:25:23;1.63;;;0.73;;
15693;SDS011;7947;48.834;9.132;2023-08-08T10:28:28;0.60;;;0.40;;
15693;SDS011;7947;48.834;9.132;2023-08-08T10:31:33;2.97;;;0.57;;
15693;SDS011;7947;48.834;9.132;2023-08-08T10:34:38;0.65;;;0.65;;
15693;SDS011;7947;48.834;9.132;2023-08-08T10:37:52;1.02;;;0.52;;
15693;SDS011;7947;48.834;9.132;2023-08-08T10:40:57;0.88;;;0.60;;
15693;SDS011;7947;48.834;9.132;2023-08-08T10:44:00;0.90;;;0.52;;
15693;SDS011;7947;48.834;9.132;2023-08-08T10:47:04;4.10;;;0.88;;
15693;SDS011;7947;48.834;9.132;2023-08-08T10:50:09;1.80;;;0.73;;
15693;SDS011;7947;48.834;9.132;2023-08-08T10:53:14;0.75;;;0.35;;
15693;SDS011;7947;48.834;9.132;2023-08-08T10:56:18;1.75;;;0.82;;
15693;SDS011;7947;48.834;9.132;2023-08-08T10:59:22;1.13;;;0.80;;
15693;SDS011;7947;48.834;9.132;2023-08-08T11:02:25;1.58;;;0.60;;
15693;SDS011;7947;48.834;9.132;2023-08-08T11:05:29;1.15;;;0.63;;
15693;SDS011;7947;48.834;9.132;2023-08-08T11:08:34;1.38;;;0.80;;
15693;SDS011;7947;48.834;9.132;2023-08-08T11:11:39;1.02;;;0.80;;
15693;SDS011;7947;48.834;9.132;2023-08-08T11:14:43;0.75;;;0.75;;
15693;SDS011;7947;48.834;9.132;2023-08-08T11:17:45;1.08;;;0.50;;
15693;SDS011;7947;48.834;9.132;2023-08-08T11:20:49;1.00;;;0.70;;
15693;SDS011;7947;48.834;9.132;2023-08-08T11:23:59;1.73;;;0.63;;
15693;SDS011;7947;48.834;9.132;2023-08-08T11:27:01;2.35;;;0.50;;
15693;SDS011;7947;48.834;9.132;2023-08-08T11:30:05;3.65;;;0.77;;
15693;SDS011;7947;48.834;9.132;2023-08-08T11:33:12;0.77;;;0.55;;
15693;SDS011;7947;48.834;9.132;2023-08-08T11:36:16;1.15;;;0.50;;
15693;SDS011;7947;48.834;9.132;2023-08-08T11:39:20;1.23;;;0.70;;
15693;SDS011;7947;48.834;9.132;2023-08-08T11:42:23;1.10;;;0.90;;
15693;SDS011;7947;48.834;9.132;2023-08-08T11:45:26;0.73;;;0.70;;
15693;SDS011;7947;48.834;9.132;2023-08-08T11:48:32;1.13;;;0.68;;
15693;SDS011;7947;48.834;9.132;2023-08-08T11:51:35;0.70;;;0.60;;
15693;SDS011;7947;48.834;9.132;2023-08-08T11:54:39;1.00;;;0.77;;
15693;SDS011;7947;48.834;9.132;2023-08-08T11:57:45;1.50;;;0.68;;
15693;SDS011;7947;48.834;9.132;2023-08-08T12:00:48;0.88;;;0.70;;
15693;SDS011;7947;48.834;9.132;2023-08-08T12:03:51;0.70;;;0.60;;
15693;SDS011;7947;48.834;9.132;2023-08-08T12:07:00;1.30;;;0.82;;
15693;SDS011;7947;48.834;9.132;2023-08-08T12:10:12;0.93;;;0.63;;
15693;SDS011;7947;48.834;9.132;2023-08-08T12:13:19;1.10;;;0.80;;
15693;SDS011;7947;48.834;9.132;2023-08-08T12:16:23;0.70;;;0.70;;
15693;SDS011;7947;48.834;9.132;2023-08-08T12:19:33;1.40;;;0.90;;
15693;SDS011;7947;48.834;9.132;2023-08-08T12:22:36;1.02;;;0.70;;
15693;SDS011;7947;48.834;9.132;2023-08-08T12:25:41;2.88;;;0.85;;
15693;SDS011;7947;48.834;9.132;2023-08-08T12:28:45;1.00;;;0.57;;
15693;SDS011;7947;48.834;9.132;2023-08-08T12:31:47;0.75;;;0.70;;
15693;SDS011;7947;48.834;9.132;2023-08-08T12:34:50;0.82;;;0.68;;
15693;SDS011;7947;48.834;9.132;2023-08-08T12:37:53;2.00;;;0.90;;
15693;SDS011;7947;48.834;9.132;2023-08-08T12:40:58;1.48;;;0.80;;
15693;SDS011;7947;48.834;9.132;2023-08-08T12:44:03;3.25;;;1.33;;
15693;SDS011;7947;48.834;9.132;2023-08-08T12:47:06;1.38;;;0.60;;
15693;SDS011;7947;48.834;9.132;2023-08-08T12:50:09;1.23;;;0.80;;
15693;SDS011;7947;48.834;9.132;2023-08-08T12:53:12;2.38;;;0.80;;
15693;SDS011;7947;48.834;9.132;2023-08-08T12:56:16;0.60;;;0.60;;
15693;SDS011;7947;48.834;9.132;2023-08-08T12:59:19;3.30;;;0.60;;
15693;SDS011;7947;48.834;9.132;2023-08-08T13:02:22;1.55;;;0.70;;
15693;SDS011;7947;48.834;9.132;2023-08-08T13:05:25;1.42;;;0.80;;
15693;SDS011;7947;48.834;9.132;2023-08-08T13:08:27;1.33;;;0.80;;
15693;SDS011;7947;48.834;9.132;2023-08-08T13:11:32;1.67;;;0.80;;
15693;SDS011;7947;48.834;9.132;2023-08-08T13:14:34;0.82;;;0.60;;
15693;SDS011;7947;48.834;9.132;2023-08-08T13:17:37;1.77;;;1.10;;
15693;SDS011;7947;48.834;9.132;2023-08-08T13:20:40;1.27;;;0.85;;
15693;SDS011;7947;48.834;9.132;2023-08-08T13:23:44;1.33;;;0.82;;
15693;SDS011;7947;48.834;9.132;2023-08-08T13:26:48;1.00;;;0.88;;
15693;SDS011;7947;48.834;9.132;2023-08-08T13:29:51;1.25;;;0.93;;
15693;SDS011;7947;48.834;9.132;2023-08-08T13:32:54;1.00;;;0.70;;
15693;SDS011;7947;48.834;9.132;2023-08-08T13:35:57;0.80;;;0.75;;
15693;SDS011;7947;48.834;9.132;2023-08-08T13:39:00;1.42;;;0.77;;
15693;SDS011;7947;48.834;9.132;2023-08-08T13:42:04;1.42;;;0.80;;
15693;SDS011;7947;48.834;9.132;2023-08-08T13:45:07;1.90;;;0.90;;
15693;SDS011;7947;48.834;9.132;2023-08-08T13:48:11;2.67;;;0.63;;
15693;SDS011;7947;48.834;9.132;2023-08-08T13:51:14;1.00;;;0.57;;
15693;SDS011;7947;48.834;9.132;2023-08-08T13:54:17;0.80;;;0.50;;
15693;SDS011;7947;48.834;9.132;2023-08-08T13:57:21;0.82;;;0.65;;
15693;SDS011;7947;48.834;9.132;2023-08-08T14:00:24;1.42;;;0.65;;
15693;SDS011;7947;48.834;9.132;2023-08-08T14:03:28;0.98;;;0.57;;
15693;SDS011;7947;48.834;9.132;2023-08-08T14:06:30;1.75;;;0.65;;
15693;SDS011;7947;48.834;9.132;2023-08-08T14:09:33;1.23;;;0.75;;
15693;SDS011;7947;48.834;9.132;2023-08-08T14:12:37;1.10;;;0.88;;
15693;SDS011;7947;48.834;9.132;2023-08-08T14:15:40;0.75;;;0.50;;
15693;SDS011;7947;48.834;9.132;2023-08-08T14:18:43;1.08;;;0.50;;
15693;SDS011;7947;48.834;9.132;2023-08-08T14:21:46;0.93;;;0.80;;
15693;SDS011;7947;48.834;9.132;2023-08-08T14:24:49;0.85;;;0.65;;
15693;SDS011;7947;48.834;9.132;2023-08-08T14:27:53;0.98;;;0.73;;
15693;SDS011;7947;48.834;9.132;2023-08-08T14:30:58;1.75;;;0.70;;
15693;SDS011;7947;48.834;9.132;2023-08-08T14:34:01;1.17;;;0.80;;
15693;SDS011;7947;48.834;9.132;2023-08-08T14:37:05;0.93;;;0.70;;
15693;SDS011;7947;48.834;9.132;2023-08-08T14:40:08;2.38;;;0.73;;
15693;SDS011;7947;48.834;9.132;2023-08-08T14:43:13;1.23;;;0.60;;
15693;SDS011;7947;48.834;9.132;2023-08-08T14:46:16;3.00;;;0.70;;
15693;SDS011;7947;48.834;9.132;2023-08-08T14:49:19;0.93;;;0.70;;
15693;SDS011;7947;48.834;9.132;2023-08-08T14:52:21;1.02;;;0.75;;
15693;SDS011;7947;48.834;9.132;2023-08-08T14:55:27;0.85;;;0.60;;
15693;SDS011;7947;48.834;9.132;2023-08-08T14:58:31;2.25;;;0.77;;
15693;SDS011;7947;48.834;9.132;2023-08-08T15:01:36;2.40;;;0.80;;
15693;SDS011;7947;48.834;9.132;2023-08-08T15:04:39;1.55;;;0.70;;
15693;SDS011;7947;48.834;9.132;2023-08-08T15:07:41;1.00;;;0.85;;
15693;SDS011;7947;48.834;9.132;2023-08-08T15:10:44;0.90;;;0.70;;
15693;SDS011;7947;48.834;9.132;2023-08-08T15:13:48;1.98;;;0.93;;
15693;SDS011;7947;48.834;9.132;2023-08-08T15:16:51;1.60;;;0.73;;
15693;SDS011;7947;48.834;9.132;2023-08-08T15:19:55;1.30;;;0.73;;
15693;SDS011;7947;48.834;9.132;2023-08-08T15:22:57;0.77;;;0.50;;
15693;SDS011;7947;48.834;9.132;2023-08-08T15:26:00;2.90;;;1.00;;
15693;SDS011;7947;48.834;9.132;2023-08-08T15:29:04;1.23;;;0.60;;
15693;SDS011;7947;48.834;9.132;2023-08-08T15:32:07;2.20;;;0.70;;
15693;SDS011;7947;48.834;9.132;2023-08-08T15:35:10;1.95;;;0.98;;
15693;SDS011;7947;48.834;9.132;2023-08-08T15:38:13;1.42;;;0.68;;
15693;SDS011;7947;48.834;9.132;2023-08-08T15:41:15;1.27;;;0.70;;
15693;SDS011;7947;48.834;9.132;2023-08-08T15:44:20;1.10;;;0.80;;
15693;SDS011;7947;48.834;9.132;2023-08-08T15:47:22;1.45;;;0.73;;
15693;SDS011;7947;48.834;9.132;2023-08-08T15:50:25;0.60;;;0.60;;
15693;SDS011;7947;48.834;9.132;2023-08-08T15:53:28;0.80;;;0.60;;
15693;SDS011;7947;48.834;9.132;2023-08-08T15:56:32;0.75;;;0.65;;
15693;SDS011;7947;48.834;9.132;2023-08-08T15:59:36;0.88;;;0.70;;
15693;SDS011;7947;48.834;9.132;2023-08-08T16:02:43;1.27;;;0.90;;
15693;SDS011;7947;48.834;9.132;2023-08-08T16:05:46;0.90;;;0.80;;
15693;SDS011;7947;48.834;9.132;2023-08-08T16:08:49;1.45;;;0.85;;
15693;SDS011;7947;48.834;9.132;2023-08-08T16:11:52;2.85;;;0.68;;
15693;SDS011;7947;48.834;9.132;2023-08-08T16:14:56;2.90;;;1.00;;
15693;SDS011;7947;48.834;9.132;2023-08-08T16:17:58;1.30;;;0.77;;
15693;SDS011;7947;48.834;9.132;2023-08-08T16:21:01;1.20;;;0.88;;
15693;SDS011;7947;48.834;9.132;2023-08-08T16:24:04;1.00;;;0.70;;
15693;SDS011;7947;48.834;9.132;2023-08-08T16:27:07;1.38;;;0.80;;
15693;SDS011;7947;48.834;9.132;2023-08-08T16:30:12;2.53;;;0.80;;
15693;SDS011;7947;48.834;9.132;2023-08-08T16:33:15;1.88;;;0.90;;
15693;SDS011;7947;48.834;9.132;2023-08-08T16:36:19;1.92;;;1.05;;
15693;SDS011;7947;48.834;9.132;2023-08-08T16:39:22;1.10;;;0.50;;
15693;SDS011;7947;48.834;9.132;2023-08-08T16:42:24;1.17;;;0.75;;
15693;SDS011;7947;48.834;9.132;2023-08-08T16:45:29;1.52;;;0.93;;
15693;SDS011;7947;48.834;9.132;2023-08-08T16:48:31;1.65;;;0.85;;
15693;SDS011;7947;48.834;9.132;2023-08-08T16:51:34;1.13;;;0.70;;
15693;SDS011;7947;48.834;9.132;2023-08-08T16:54:37;1.90;;;1.08;;
15693;SDS011;7947;48.834;9.132;2023-08-08T16:57:41;2.13;;;0.68;;
15693;SDS011;7947;48.834;9.132;2023-08-08T17:00:45;1.00;;;0.90;;
15693;SDS011;7947;48.834;9.132;2023-08-08T17:03:48;1.35;;;0.80;;
15693;SDS011;7947;48.834;9.132;2023-08-08T17:06:51;0.75;;;0.63;;
15693;SDS011;7947;48.834;9.132;2023-08-08T17:09:55;1.13;;;0.70;;
15693;SDS011;7947;48.834;9.132;2023-08-08T17:12:57;0.85;;;0.65;;
15693;SDS011;7947;48.834;9.132;2023-08-08T17:16:02;1.30;;;0.80;;
15693;SDS011;7947;48.834;9.132;2023-08-08T17:19:05;0.75;;;0.50;;
15693;SDS011;7947;48.834;9.132;2023-08-08T17:22:08;1.13;;;0.57;;
15693;SDS011;7947;48.834;9.132;2023-08-08T17:25:11;1.83;;;0.70;;
15693;SDS011;7947;48.834;9.132;2023-08-08T17:28:14;1.77;;;0.70;;
15693;SDS011;7947;48.834;9.132;2023-08-08T17:31:18;1.10;;;0.60;;
15693;SDS011;7947;48.834;9.132;2023-08-08T17:34:21;0.77;;;0.63;;
15693;SDS011;7947;48.834;9.132;2023-08-08T17:37:24;1.48;;;0.90;;
15693;SDS011;7947;48.834;9.132;2023-08-08T17:40:27;1.77;;;0.75;;
15693;SDS011;7947;48.834;9.132;2023-08-08T17:43:30;1.15;;;0.63;;
15693;SDS011;7947;48.834;9.132;2023-08-08T17:46:34;0.60;;;0.60;;
15693;SDS011;7947;48.834;9.132;2023-08-08T17:49:37;1.15;;;0.80;;
15693;SDS011;7947;48.834;9.132;2023-08-08T17:52:41;3.00;;;1.80;;
15693;SDS011;7947;48.834;9.132;2023-08-08T17:55:44;3.30;;;2.20;;
15693;SDS011;7947;48.834;9.132;2023-08-08T17:58:46;2.92;;;2.10;;
15693;SDS011;7947;48.834;9.132;2023-08-08T18:01:51;4.53;;;2.75;;
15693;SDS011;7947;48.834;9.132;2023-08-08T18:04:54;3.67;;;2.65;;
15693;SDS011;7947;48.834;9.132;2023-08-08T18:07:57;2.85;;;1.40;;
15693;SDS011;7947;48.834;9.132;2023-08-08T18:11:00;3.45;;;1.83;;
15693;SDS011;7947;48.834;9.132;2023-08-08T18:14:03;4.53;;;2.35;;
15693;SDS011;7947;48.834;9.132;2023-08-08T18:17:07;3.40;;;1.88;;
15693;SDS011;7947;48.834;9.132;2023-08-08T18:20:10;2.13;;;1.60;;
15693;SDS011;7947;48.834;9.132;2023-08-08T18:23:14;3.67;;;1.13;;
15693;SDS011;7947;48.834;9.132;2023-08-08T18:26:17;2.03;;;1.30;;
15693;SDS011;7947;48.834;9.132;2023-08-08T18:29:19;1.00;;;0.80;;
15693;SDS011;7947;48.834;9.132;2023-08-08T18:32:24;4.15;;;1.90;;
15693;SDS011;7947;48.834;9.132;2023-08-08T18:35:28;4.85;;;2.53;;
15693;SDS011;7947;48.834;9.132;2023-08-08T18:38:30;4.20;;;2.72;;
15693;SDS011;7947;48.834;9.132;2023-08-08T18:41:34;3.40;;;2.00;;